Capitol Logistics 308


KPVD
Theodore Francis Green State Airport
Providence, Rhode Island, US
KRFD
Chicago/Rockford International Airport
Rockford, Illinois, US

Route Details

Aircraft Information
Primary: Boeing 767-300BDSF
Backup: Not Available
Route Data
Distance: 790nm
Sched. Duration: 1h 39m
Avg. Duration: 2h 27m (+88m)
Times Flown: 9
Recm'd Route: BAF HNK NUGNT DJB J60 JOT V171 RFD
Planned Altitude: 38,000ft
Origin Wx: KPVD 181551Z 14013KT 10SM BKN065 OVC075 04/M02 A3039 RMK AO2 SLP290 T00441017
Dest. Wx: KRFD 181554Z 31013G22KT 10SM OVC021 00/M04 A3018 RMK AO2 SLP228 T00001044
Notes:

Financial History
Total Freight: 419,271lbs
Average Load: 46,586lbs/flt
Fuel Used: 154,433lbs
Avg. Fuel Used: 17,159lbs/flt
Fuel Expense: $146,711
Avg. Fuel Expense: $16,301
Avg. Fuel Cost: $0.95/lbs
Total Gross Income: $542,219
Pilot Pay: $1,261
Total Expenses: $59,028
Total Revenue: $332,412
Average Revenue: $60,246.52